Terminal Aerodrome Forecast
Issued by NWS

Home | Current Version | Previous Version | Text Only | Print | Product List | Glossary On
Versions: 1 2 3 4 5 6 7 8 9 10 11 12 13
000
FTPA31 PHFO 301128
TAFHTO
TAF
PHTO 301128Z 3012/0112 23005KT P6SM VCSH FEW025 SCT040 BKN250
     FM302100 04009KT P6SM SCT025 BKN045
     FM010500 VRB05KT P6SM VCSH SCT025 BKN040
     FM010800 24004KT P6SM VCSH SCT025 BKN040=

USA.gov is the U.S. government's official web portal to all federal, state and local government web resources and services.